Riviere-Saint-Jean, Canada
Current Conditions -  °F | °C
As of 12:00 AM on Friday 24 Oct 2014 (Local Time) from CYGV Reporting Station
Clear Clear  
Wind Chill: 22°   Ceiling: Unl
Heat Index: 28°   Visibility: 9mi
Dew Point: 28°   Wind: 6mph
Humidity: 100%   Direction: 20°NNE
Pressure: 30.13"   Gusts: NA
Location:  50.28°N, 64.33°W
Report Text: CYGV 240400Z AUTO 02005KT 9SM CLR M02/M02 A3013 RMK SLP204
Loading
Personal Weather Stations






























Interactive Weather Map New forecast layout! Learn more

10-Day Weather Forecast

Advertisements
Track Severe Weather on mobile